Terminal Aerodrome Forecast
Issued by NWS

Home | Current Version | Previous Version | Graphics & Text | Print | Product List | Glossary On
Versions: 1 2 3 4 5 6 7 8 9 10 11 12 13
550
FTUS43 KGRB 162322
TAFAUW
TAF
KAUW 162322Z 1700/1724 25007KT P6SM SKC
     FM170600 20006KT P6SM BKN100 WS020/24045KT
     FM171400 21008G15KT 2SM -SN OVC022 WS020/25040KT
     FM171700 22009G16KT 3SM -SN OVC022
     FM171900 24008KT P6SM BKN035=

USA.gov is the U.S. government's official web portal to all federal, state and local government web resources and services.